sensor_id;sensor_type;location;lat;lon;timestamp;P1;durP1;ratioP1;P2;durP2;ratioP2
74674;SDS011;63200;48.810;12.352;2023-04-25T00:00:28;6.00;;;3.10;;
74674;SDS011;63200;48.810;12.352;2023-04-25T00:02:53;3.25;;;2.92;;
74674;SDS011;63200;48.810;12.352;2023-04-25T00:05:21;3.67;;;3.47;;
74674;SDS011;63200;48.810;12.352;2023-04-25T00:07:48;3.80;;;3.15;;
74674;SDS011;63200;48.810;12.352;2023-04-25T00:10:13;3.00;;;2.78;;
74674;SDS011;63200;48.810;12.352;2023-04-25T00:12:39;3.10;;;2.95;;
74674;SDS011;63200;48.810;12.352;2023-04-25T00:15:05;3.55;;;2.85;;
74674;SDS011;63200;48.810;12.352;2023-04-25T00:17:31;2.70;;;2.60;;
74674;SDS011;63200;48.810;12.352;2023-04-25T00:19:56;3.13;;;2.92;;
74674;SDS011;63200;48.810;12.352;2023-04-25T00:22:23;3.97;;;3.03;;
74674;SDS011;63200;48.810;12.352;2023-04-25T00:24:48;4.53;;;2.58;;
74674;SDS011;63200;48.810;12.352;2023-04-25T00:27:13;2.97;;;2.75;;
74674;SDS011;63200;48.810;12.352;2023-04-25T00:29:39;3.10;;;2.88;;
74674;SDS011;63200;48.810;12.352;2023-04-25T00:32:04;2.88;;;2.75;;
74674;SDS011;63200;48.810;12.352;2023-04-25T00:34:29;2.92;;;2.83;;
74674;SDS011;63200;48.810;12.352;2023-04-25T00:36:55;2.92;;;2.78;;
74674;SDS011;63200;48.810;12.352;2023-04-25T00:39:20;3.35;;;2.85;;
74674;SDS011;63200;48.810;12.352;2023-04-25T00:41:45;3.65;;;2.78;;
74674;SDS011;63200;48.810;12.352;2023-04-25T00:44:11;3.88;;;2.72;;
74674;SDS011;63200;48.810;12.352;2023-04-25T00:46:38;3.80;;;3.10;;
74674;SDS011;63200;48.810;12.352;2023-04-25T00:49:04;3.22;;;3.03;;
74674;SDS011;63200;48.810;12.352;2023-04-25T00:51:29;3.88;;;3.03;;
74674;SDS011;63200;48.810;12.352;2023-04-25T00:53:55;3.25;;;3.05;;
74674;SDS011;63200;48.810;12.352;2023-04-25T00:56:21;2.97;;;2.80;;
74674;SDS011;63200;48.810;12.352;2023-04-25T00:58:46;3.50;;;3.20;;
74674;SDS011;63200;48.810;12.352;2023-04-25T01:01:13;4.55;;;3.08;;
74674;SDS011;63200;48.810;12.352;2023-04-25T01:03:39;3.10;;;2.90;;
74674;SDS011;63200;48.810;12.352;2023-04-25T01:06:06;3.03;;;2.67;;
74674;SDS011;63200;48.810;12.352;2023-04-25T01:08:34;3.88;;;2.70;;
74674;SDS011;63200;48.810;12.352;2023-04-25T01:11:00;2.83;;;2.58;;
74674;SDS011;63200;48.810;12.352;2023-04-25T01:13:25;4.90;;;3.42;;
74674;SDS011;63200;48.810;12.352;2023-04-25T01:15:50;6.05;;;2.90;;
74674;SDS011;63200;48.810;12.352;2023-04-25T01:18:16;3.03;;;2.72;;
74674;SDS011;63200;48.810;12.352;2023-04-25T01:20:41;2.90;;;2.70;;
74674;SDS011;63200;48.810;12.352;2023-04-25T01:23:07;2.90;;;2.60;;
74674;SDS011;63200;48.810;12.352;2023-04-25T01:25:32;2.58;;;2.47;;
74674;SDS011;63200;48.810;12.352;2023-04-25T01:27:58;6.70;;;3.03;;
74674;SDS011;63200;48.810;12.352;2023-04-25T01:30:25;2.90;;;2.70;;
74674;SDS011;63200;48.810;12.352;2023-04-25T01:32:52;4.60;;;2.83;;
74674;SDS011;63200;48.810;12.352;2023-04-25T01:35:19;3.28;;;2.85;;
74674;SDS011;63200;48.810;12.352;2023-04-25T01:37:45;2.90;;;2.67;;
74674;SDS011;63200;48.810;12.352;2023-04-25T01:40:10;3.88;;;2.90;;
74674;SDS011;63200;48.810;12.352;2023-04-25T01:42:38;2.92;;;2.58;;
74674;SDS011;63200;48.810;12.352;2023-04-25T01:45:05;4.22;;;2.92;;
74674;SDS011;63200;48.810;12.352;2023-04-25T01:47:31;4.07;;;3.25;;
74674;SDS011;63200;48.810;12.352;2023-04-25T01:49:57;2.90;;;2.70;;
74674;SDS011;63200;48.810;12.352;2023-04-25T01:52:22;3.13;;;2.92;;
74674;SDS011;63200;48.810;12.352;2023-04-25T01:54:48;3.55;;;3.25;;
74674;SDS011;63200;48.810;12.352;2023-04-25T01:57:14;2.55;;;2.42;;
74674;SDS011;63200;48.810;12.352;2023-04-25T01:59:40;3.70;;;3.00;;
74674;SDS011;63200;48.810;12.352;2023-04-25T02:02:06;3.22;;;3.03;;
74674;SDS011;63200;48.810;12.352;2023-04-25T02:04:31;4.00;;;3.15;;
74674;SDS011;63200;48.810;12.352;2023-04-25T02:06:57;3.65;;;3.35;;
74674;SDS011;63200;48.810;12.352;2023-04-25T02:09:22;3.58;;;3.25;;
74674;SDS011;63200;48.810;12.352;2023-04-25T02:11:48;3.72;;;3.42;;
74674;SDS011;63200;48.810;12.352;2023-04-25T02:14:14;4.72;;;3.63;;
74674;SDS011;63200;48.810;12.352;2023-04-25T02:16:39;3.50;;;3.20;;
74674;SDS011;63200;48.810;12.352;2023-04-25T02:19:05;3.80;;;3.50;;
74674;SDS011;63200;48.810;12.352;2023-04-25T02:21:31;3.63;;;2.95;;
74674;SDS011;63200;48.810;12.352;2023-04-25T02:23:57;3.08;;;2.88;;
74674;SDS011;63200;48.810;12.352;2023-04-25T02:26:23;5.95;;;3.38;;
74674;SDS011;63200;48.810;12.352;2023-04-25T02:28:48;3.92;;;3.65;;
74674;SDS011;63200;48.810;12.352;2023-04-25T02:31:14;8.50;;;3.40;;
74674;SDS011;63200;48.810;12.352;2023-04-25T02:33:40;3.58;;;3.28;;
74674;SDS011;63200;48.810;12.352;2023-04-25T02:36:05;3.30;;;3.10;;
74674;SDS011;63200;48.810;12.352;2023-04-25T02:38:31;3.17;;;2.92;;
74674;SDS011;63200;48.810;12.352;2023-04-25T02:40:56;3.53;;;3.22;;
74674;SDS011;63200;48.810;12.352;2023-04-25T02:43:21;3.92;;;3.60;;
74674;SDS011;63200;48.810;12.352;2023-04-25T02:45:47;4.00;;;3.13;;
74674;SDS011;63200;48.810;12.352;2023-04-25T02:48:12;3.78;;;3.15;;
74674;SDS011;63200;48.810;12.352;2023-04-25T02:50:37;5.60;;;3.25;;
74674;SDS011;63200;48.810;12.352;2023-04-25T02:53:03;3.60;;;3.30;;
74674;SDS011;63200;48.810;12.352;2023-04-25T02:55:28;4.03;;;3.60;;
74674;SDS011;63200;48.810;12.352;2023-04-25T02:57:53;3.78;;;3.35;;
74674;SDS011;63200;48.810;12.352;2023-04-25T03:00:20;4.10;;;3.40;;
74674;SDS011;63200;48.810;12.352;2023-04-25T03:02:46;3.22;;;3.05;;
74674;SDS011;63200;48.810;12.352;2023-04-25T03:05:11;3.50;;;3.30;;
74674;SDS011;63200;48.810;12.352;2023-04-25T03:07:36;4.22;;;3.40;;
74674;SDS011;63200;48.810;12.352;2023-04-25T03:10:04;3.33;;;3.10;;
74674;SDS011;63200;48.810;12.352;2023-04-25T03:12:30;3.60;;;3.30;;
74674;SDS011;63200;48.810;12.352;2023-04-25T03:14:56;3.65;;;3.35;;
74674;SDS011;63200;48.810;12.352;2023-04-25T03:17:21;4.30;;;3.42;;
74674;SDS011;63200;48.810;12.352;2023-04-25T03:19:46;3.38;;;3.17;;
74674;SDS011;63200;48.810;12.352;2023-04-25T03:22:12;3.75;;;3.28;;
74674;SDS011;63200;48.810;12.352;2023-04-25T03:24:37;3.88;;;3.50;;
74674;SDS011;63200;48.810;12.352;2023-04-25T03:27:02;5.38;;;3.50;;
74674;SDS011;63200;48.810;12.352;2023-04-25T03:29:28;5.13;;;3.60;;
74674;SDS011;63200;48.810;12.352;2023-04-25T03:31:53;3.70;;;3.17;;
74674;SDS011;63200;48.810;12.352;2023-04-25T03:34:19;6.80;;;3.67;;
74674;SDS011;63200;48.810;12.352;2023-04-25T03:36:44;6.38;;;3.80;;
74674;SDS011;63200;48.810;12.352;2023-04-25T03:39:09;9.95;;;3.25;;
74674;SDS011;63200;48.810;12.352;2023-04-25T03:41:35;3.88;;;3.58;;
74674;SDS011;63200;48.810;12.352;2023-04-25T03:44:00;5.32;;;3.20;;
74674;SDS011;63200;48.810;12.352;2023-04-25T03:46:25;3.65;;;3.45;;
74674;SDS011;63200;48.810;12.352;2023-04-25T03:48:51;3.63;;;3.40;;
74674;SDS011;63200;48.810;12.352;2023-04-25T03:51:16;3.70;;;3.40;;
74674;SDS011;63200;48.810;12.352;2023-04-25T03:53:41;3.50;;;3.28;;
74674;SDS011;63200;48.810;12.352;2023-04-25T03:56:06;3.30;;;3.00;;
74674;SDS011;63200;48.810;12.352;2023-04-25T03:58:32;3.33;;;3.00;;
74674;SDS011;63200;48.810;12.352;2023-04-25T04:00:57;3.60;;;3.28;;
74674;SDS011;63200;48.810;12.352;2023-04-25T04:03:22;3.65;;;3.30;;
74674;SDS011;63200;48.810;12.352;2023-04-25T04:05:48;4.28;;;3.30;;
74674;SDS011;63200;48.810;12.352;2023-04-25T04:08:13;3.63;;;3.40;;
74674;SDS011;63200;48.810;12.352;2023-04-25T04:10:39;3.50;;;3.20;;
74674;SDS011;63200;48.810;12.352;2023-04-25T04:13:04;3.28;;;3.03;;
74674;SDS011;63200;48.810;12.352;2023-04-25T04:15:29;3.70;;;3.40;;
74674;SDS011;63200;48.810;12.352;2023-04-25T04:17:57;4.47;;;3.15;;
74674;SDS011;63200;48.810;12.352;2023-04-25T04:20:27;3.38;;;3.08;;
74674;SDS011;63200;48.810;12.352;2023-04-25T04:22:52;4.00;;;3.60;;
74674;SDS011;63200;48.810;12.352;2023-04-25T04:25:17;4.03;;;3.40;;
74674;SDS011;63200;48.810;12.352;2023-04-25T04:27:43;4.20;;;3.38;;
74674;SDS011;63200;48.810;12.352;2023-04-25T04:30:09;3.70;;;3.50;;
74674;SDS011;63200;48.810;12.352;2023-04-25T04:32:35;5.60;;;3.25;;
74674;SDS011;63200;48.810;12.352;2023-04-25T04:35:02;3.40;;;3.20;;
74674;SDS011;63200;48.810;12.352;2023-04-25T04:37:29;3.42;;;3.20;;
74674;SDS011;63200;48.810;12.352;2023-04-25T04:39:55;4.22;;;3.00;;
74674;SDS011;63200;48.810;12.352;2023-04-25T04:42:20;3.28;;;3.08;;
74674;SDS011;63200;48.810;12.352;2023-04-25T04:44:46;4.38;;;2.80;;
74674;SDS011;63200;48.810;12.352;2023-04-25T04:47:11;6.18;;;3.35;;
74674;SDS011;63200;48.810;12.352;2023-04-25T04:49:37;4.25;;;3.20;;
74674;SDS011;63200;48.810;12.352;2023-04-25T04:52:02;4.80;;;3.08;;
74674;SDS011;63200;48.810;12.352;2023-04-25T04:54:28;3.90;;;3.50;;
74674;SDS011;63200;48.810;12.352;2023-04-25T04:56:53;5.07;;;3.40;;
74674;SDS011;63200;48.810;12.352;2023-04-25T04:59:18;5.00;;;3.53;;
74674;SDS011;63200;48.810;12.352;2023-04-25T05:01:44;5.47;;;3.60;;
74674;SDS011;63200;48.810;12.352;2023-04-25T05:04:09;7.03;;;4.93;;
74674;SDS011;63200;48.810;12.352;2023-04-25T05:06:34;5.93;;;3.67;;
74674;SDS011;63200;48.810;12.352;2023-04-25T05:09:00;6.30;;;4.47;;
74674;SDS011;63200;48.810;12.352;2023-04-25T05:11:25;11.52;;;4.55;;
74674;SDS011;63200;48.810;12.352;2023-04-25T05:13:51;24.67;;;8.13;;
74674;SDS011;63200;48.810;12.352;2023-04-25T05:16:17;14.27;;;6.55;;
74674;SDS011;63200;48.810;12.352;2023-04-25T05:18:43;4.30;;;3.90;;
74674;SDS011;63200;48.810;12.352;2023-04-25T05:21:08;4.25;;;3.83;;
74674;SDS011;63200;48.810;12.352;2023-04-25T05:23:34;10.27;;;4.53;;
74674;SDS011;63200;48.810;12.352;2023-04-25T05:25:59;4.85;;;3.78;;
74674;SDS011;63200;48.810;12.352;2023-04-25T05:28:25;4.28;;;3.45;;
74674;SDS011;63200;48.810;12.352;2023-04-25T05:30:50;7.30;;;3.95;;
74674;SDS011;63200;48.810;12.352;2023-04-25T05:33:16;4.63;;;3.10;;
74674;SDS011;63200;48.810;12.352;2023-04-25T05:35:41;3.45;;;3.15;;
74674;SDS011;63200;48.810;12.352;2023-04-25T05:38:07;3.45;;;3.25;;
74674;SDS011;63200;48.810;12.352;2023-04-25T05:40:32;3.50;;;3.20;;
74674;SDS011;63200;48.810;12.352;2023-04-25T05:42:57;3.00;;;2.80;;
74674;SDS011;63200;48.810;12.352;2023-04-25T05:45:23;4.43;;;3.13;;
74674;SDS011;63200;48.810;12.352;2023-04-25T05:47:48;5.30;;;3.30;;
74674;SDS011;63200;48.810;12.352;2023-04-25T05:50:13;4.93;;;2.95;;
74674;SDS011;63200;48.810;12.352;2023-04-25T05:52:39;3.10;;;2.90;;
74674;SDS011;63200;48.810;12.352;2023-04-25T05:55:04;3.40;;;3.05;;
74674;SDS011;63200;48.810;12.352;2023-04-25T05:57:30;3.50;;;3.10;;
74674;SDS011;63200;48.810;12.352;2023-04-25T05:59:56;4.40;;;2.70;;
74674;SDS011;63200;48.810;12.352;2023-04-25T06:02:21;3.03;;;2.70;;
74674;SDS011;63200;48.810;12.352;2023-04-25T06:04:48;5.25;;;2.53;;
74674;SDS011;63200;48.810;12.352;2023-04-25T06:07:14;2.63;;;2.42;;
74674;SDS011;63200;48.810;12.352;2023-04-25T06:09:40;4.00;;;2.30;;
74674;SDS011;63200;48.810;12.352;2023-04-25T06:12:05;2.60;;;2.38;;
74674;SDS011;63200;48.810;12.352;2023-04-25T06:14:31;2.72;;;2.53;;
74674;SDS011;63200;48.810;12.352;2023-04-25T06:16:57;3.50;;;2.30;;
74674;SDS011;63200;48.810;12.352;2023-04-25T06:19:22;3.33;;;2.05;;
74674;SDS011;63200;48.810;12.352;2023-04-25T06:21:48;3.78;;;2.22;;
74674;SDS011;63200;48.810;12.352;2023-04-25T06:24:13;3.03;;;2.70;;
74674;SDS011;63200;48.810;12.352;2023-04-25T06:26:38;2.80;;;2.25;;
74674;SDS011;63200;48.810;12.352;2023-04-25T06:29:04;2.70;;;2.50;;
74674;SDS011;63200;48.810;12.352;2023-04-25T06:31:29;2.97;;;2.83;;
74674;SDS011;63200;48.810;12.352;2023-04-25T06:33:57;5.88;;;2.70;;
74674;SDS011;63200;48.810;12.352;2023-04-25T06:36:22;2.63;;;2.42;;
74674;SDS011;63200;48.810;12.352;2023-04-25T06:38:50;4.45;;;2.60;;
74674;SDS011;63200;48.810;12.352;2023-04-25T06:41:16;4.65;;;2.72;;
74674;SDS011;63200;48.810;12.352;2023-04-25T06:43:41;5.30;;;2.85;;
74674;SDS011;63200;48.810;12.352;2023-04-25T06:46:07;3.13;;;2.53;;
74674;SDS011;63200;48.810;12.352;2023-04-25T06:48:32;2.92;;;2.30;;
74674;SDS011;63200;48.810;12.352;2023-04-25T06:50:57;3.97;;;2.20;;
74674;SDS011;63200;48.810;12.352;2023-04-25T06:53:23;1.98;;;1.88;;
74674;SDS011;63200;48.810;12.352;2023-04-25T06:55:48;1.77;;;1.67;;
74674;SDS011;63200;48.810;12.352;2023-04-25T06:58:13;2.20;;;2.10;;
74674;SDS011;63200;48.810;12.352;2023-04-25T07:00:38;2.63;;;2.42;;
74674;SDS011;63200;48.810;12.352;2023-04-25T07:03:04;2.40;;;2.30;;
74674;SDS011;63200;48.810;12.352;2023-04-25T07:05:29;5.15;;;2.33;;
74674;SDS011;63200;48.810;12.352;2023-04-25T07:07:54;2.88;;;2.67;;
74674;SDS011;63200;48.810;12.352;2023-04-25T07:10:20;4.22;;;2.58;;
74674;SDS011;63200;48.810;12.352;2023-04-25T07:12:46;2.45;;;2.30;;
74674;SDS011;63200;48.810;12.352;2023-04-25T07:15:11;4.50;;;2.40;;
74674;SDS011;63200;48.810;12.352;2023-04-25T07:17:37;5.53;;;2.33;;
74674;SDS011;63200;48.810;12.352;2023-04-25T07:20:03;3.88;;;2.47;;
74674;SDS011;63200;48.810;12.352;2023-04-25T07:22:29;2.40;;;2.25;;
74674;SDS011;63200;48.810;12.352;2023-04-25T07:24:55;4.60;;;2.35;;
74674;SDS011;63200;48.810;12.352;2023-04-25T07:27:20;2.60;;;2.40;;
74674;SDS011;63200;48.810;12.352;2023-04-25T07:29:45;2.30;;;2.10;;
74674;SDS011;63200;48.810;12.352;2023-04-25T07:32:11;2.60;;;2.15;;
74674;SDS011;63200;48.810;12.352;2023-04-25T07:34:38;2.30;;;2.10;;
74674;SDS011;63200;48.810;12.352;2023-04-25T07:37:04;2.95;;;2.40;;
74674;SDS011;63200;48.810;12.352;2023-04-25T07:39:30;2.88;;;2.40;;
74674;SDS011;63200;48.810;12.352;2023-04-25T07:41:56;2.28;;;2.15;;
74674;SDS011;63200;48.810;12.352;2023-04-25T07:44:23;2.28;;;2.13;;
74674;SDS011;63200;48.810;12.352;2023-04-25T07:46:49;2.55;;;2.00;;
74674;SDS011;63200;48.810;12.352;2023-04-25T07:49:14;2.17;;;2.08;;
74674;SDS011;63200;48.810;12.352;2023-04-25T07:51:40;1.98;;;1.80;;
74674;SDS011;63200;48.810;12.352;2023-04-25T07:54:06;3.13;;;2.45;;
74674;SDS011;63200;48.810;12.352;2023-04-25T07:56:31;2.80;;;2.03;;
74674;SDS011;63200;48.810;12.352;2023-04-25T07:58:57;2.40;;;2.17;;
74674;SDS011;63200;48.810;12.352;2023-04-25T08:01:22;1.70;;;1.60;;
74674;SDS011;63200;48.810;12.352;2023-04-25T08:03:48;2.70;;;1.90;;
74674;SDS011;63200;48.810;12.352;2023-04-25T08:06:13;1.92;;;1.77;;
74674;SDS011;63200;48.810;12.352;2023-04-25T08:08:38;1.98;;;1.88;;
74674;SDS011;63200;48.810;12.352;2023-04-25T08:11:04;2.65;;;2.33;;
74674;SDS011;63200;48.810;12.352;2023-04-25T08:13:29;2.85;;;2.25;;
74674;SDS011;63200;48.810;12.352;2023-04-25T08:15:54;3.03;;;2.17;;
74674;SDS011;63200;48.810;12.352;2023-04-25T08:18:20;2.42;;;2.22;;
74674;SDS011;63200;48.810;12.352;2023-04-25T08:20:45;3.95;;;2.47;;
74674;SDS011;63200;48.810;12.352;2023-04-25T08:23:10;2.88;;;2.53;;
74674;SDS011;63200;48.810;12.352;2023-04-25T08:25:36;5.10;;;3.00;;
74674;SDS011;63200;48.810;12.352;2023-04-25T08:28:01;2.90;;;2.60;;
74674;SDS011;63200;48.810;12.352;2023-04-25T08:30:28;2.40;;;2.30;;
74674;SDS011;63200;48.810;12.352;2023-04-25T08:32:53;2.60;;;2.40;;
74674;SDS011;63200;48.810;12.352;2023-04-25T08:35:19;10.40;;;3.55;;
74674;SDS011;63200;48.810;12.352;2023-04-25T08:37:45;3.60;;;2.00;;
74674;SDS011;63200;48.810;12.352;2023-04-25T08:40:11;4.90;;;2.80;;
74674;SDS011;63200;48.810;12.352;2023-04-25T08:42:39;4.80;;;2.88;;
74674;SDS011;63200;48.810;12.352;2023-04-25T08:45:06;5.07;;;2.90;;
74674;SDS011;63200;48.810;12.352;2023-04-25T08:47:33;2.42;;;2.30;;
74674;SDS011;63200;48.810;12.352;2023-04-25T08:49:59;2.35;;;2.25;;
74674;SDS011;63200;48.810;12.352;2023-04-25T08:52:25;3.22;;;2.40;;
74674;SDS011;63200;48.810;12.352;2023-04-25T08:54:55;3.03;;;2.58;;
74674;SDS011;63200;48.810;12.352;2023-04-25T08:57:21;2.95;;;2.65;;
74674;SDS011;63200;48.810;12.352;2023-04-25T08:59:48;4.10;;;2.80;;
74674;SDS011;63200;48.810;12.352;2023-04-25T09:02:14;6.00;;;1.55;;
74674;SDS011;63200;48.810;12.352;2023-04-25T09:04:42;2.30;;;2.10;;
74674;SDS011;63200;48.810;12.352;2023-04-25T09:07:09;2.45;;;2.35;;
74674;SDS011;63200;48.810;12.352;2023-04-25T09:09:34;6.47;;;3.15;;
74674;SDS011;63200;48.810;12.352;2023-04-25T09:12:00;3.03;;;2.65;;
74674;SDS011;63200;48.810;12.352;2023-04-25T09:14:26;2.80;;;2.05;;
74674;SDS011;63200;48.810;12.352;2023-04-25T09:19:28;3.78;;;2.83;;
74674;SDS011;63200;48.810;12.352;2023-04-25T09:21:58;3.20;;;2.17;;
74674;SDS011;63200;48.810;12.352;2023-04-25T09:24:35;4.35;;;2.70;;
74674;SDS011;63200;48.810;12.352;2023-04-25T09:27:06;3.50;;;3.20;;
74674;SDS011;63200;48.810;12.352;2023-04-25T09:29:33;4.10;;;2.92;;
74674;SDS011;63200;48.810;12.352;2023-04-25T09:34:44;3.35;;;3.05;;
74674;SDS011;63200;48.810;12.352;2023-04-25T09:37:16;6.20;;;3.40;;
74674;SDS011;63200;48.810;12.352;2023-04-25T09:39:44;2.15;;;2.05;;
74674;SDS011;63200;48.810;12.352;2023-04-25T09:42:11;1.33;;;1.33;;
74674;SDS011;63200;48.810;12.352;2023-04-25T09:44:37;1.20;;;1.20;;
74674;SDS011;63200;48.810;12.352;2023-04-25T09:47:09;1.42;;;1.30;;
74674;SDS011;63200;48.810;12.352;2023-04-25T09:49:38;1.27;;;1.27;;
74674;SDS011;63200;48.810;12.352;2023-04-25T09:52:05;2.05;;;0.90;;
74674;SDS011;63200;48.810;12.352;2023-04-25T09:54:31;0.80;;;0.80;;
74674;SDS011;63200;48.810;12.352;2023-04-25T09:56:56;0.65;;;0.65;;
74674;SDS011;63200;48.810;12.352;2023-04-25T09:59:27;0.60;;;0.60;;
74674;SDS011;63200;48.810;12.352;2023-04-25T10:01:56;0.60;;;0.60;;
74674;SDS011;63200;48.810;12.352;2023-04-25T10:04:23;1.23;;;1.00;;
74674;SDS011;63200;48.810;12.352;2023-04-25T10:06:53;1.23;;;1.23;;
74674;SDS011;63200;48.810;12.352;2023-04-25T10:09:20;2.20;;;2.10;;
74674;SDS011;63200;48.810;12.352;2023-04-25T10:11:46;1.10;;;1.10;;
74674;SDS011;63200;48.810;12.352;2023-04-25T10:14:13;1.63;;;1.63;;
74674;SDS011;63200;48.810;12.352;2023-04-25T10:16:39;1.48;;;1.48;;
74674;SDS011;63200;48.810;12.352;2023-04-25T10:19:05;1.50;;;1.50;;
74674;SDS011;63200;48.810;12.352;2023-04-25T10:21:31;2.15;;;1.35;;
74674;SDS011;63200;48.810;12.352;2023-04-25T10:23:57;1.13;;;1.13;;
74674;SDS011;63200;48.810;12.352;2023-04-25T10:26:24;1.50;;;1.50;;
74674;SDS011;63200;48.810;12.352;2023-04-25T10:29:02;3.00;;;1.70;;
74674;SDS011;63200;48.810;12.352;2023-04-25T10:31:29;2.25;;;1.83;;
74674;SDS011;63200;48.810;12.352;2023-04-25T10:33:55;2.00;;;1.90;;
74674;SDS011;63200;48.810;12.352;2023-04-25T10:36:22;2.10;;;2.00;;
74674;SDS011;63200;48.810;12.352;2023-04-25T10:38:48;6.97;;;2.38;;
74674;SDS011;63200;48.810;12.352;2023-04-25T10:41:18;3.33;;;1.95;;
74674;SDS011;63200;48.810;12.352;2023-04-25T10:43:45;2.08;;;1.98;;
74674;SDS011;63200;48.810;12.352;2023-04-25T10:48:58;2.65;;;1.10;;
74674;SDS011;63200;48.810;12.352;2023-04-25T10:56:35;1.30;;;1.30;;
74674;SDS011;63200;48.810;12.352;2023-04-25T10:59:06;1.85;;;1.75;;
74674;SDS011;63200;48.810;12.352;2023-04-25T11:01:41;2.92;;;2.72;;
74674;SDS011;63200;48.810;12.352;2023-04-25T11:07:02;2.47;;;2.25;;
74674;SDS011;63200;48.810;12.352;2023-04-25T11:09:33;3.00;;;2.80;;
74674;SDS011;63200;48.810;12.352;2023-04-25T11:12:00;3.38;;;2.95;;
74674;SDS011;63200;48.810;12.352;2023-04-25T11:14:25;2.90;;;2.30;;
74674;SDS011;63200;48.810;12.352;2023-04-25T11:16:55;2.85;;;2.65;;
74674;SDS011;63200;48.810;12.352;2023-04-25T11:19:22;5.68;;;2.72;;
74674;SDS011;63200;48.810;12.352;2023-04-25T11:21:48;4.10;;;2.10;;
74674;SDS011;63200;48.810;12.352;2023-04-25T11:24:13;2.20;;;2.10;;
74674;SDS011;63200;48.810;12.352;2023-04-25T11:26:40;2.33;;;2.22;;
74674;SDS011;63200;48.810;12.352;2023-04-25T11:29:06;2.40;;;1.58;;
74674;SDS011;63200;48.810;12.352;2023-04-25T11:31:32;1.35;;;1.35;;
74674;SDS011;63200;48.810;12.352;2023-04-25T11:33:57;1.63;;;1.60;;
74674;SDS011;63200;48.810;12.352;2023-04-25T11:36:23;1.83;;;1.77;;
74674;SDS011;63200;48.810;12.352;2023-04-25T11:38:52;1.80;;;1.70;;
74674;SDS011;63200;48.810;12.352;2023-04-25T11:41:19;3.40;;;2.42;;
74674;SDS011;63200;48.810;12.352;2023-04-25T11:43:45;4.47;;;3.00;;
74674;SDS011;63200;48.810;12.352;2023-04-25T11:46:10;3.53;;;3.35;;
74674;SDS011;63200;48.810;12.352;2023-04-25T11:48:39;3.65;;;3.38;;
74674;SDS011;63200;48.810;12.352;2023-04-25T11:51:07;4.60;;;4.20;;
74674;SDS011;63200;48.810;12.352;2023-04-25T11:53:33;4.40;;;4.10;;
74674;SDS011;63200;48.810;12.352;2023-04-25T11:55:59;7.65;;;4.40;;
74674;SDS011;63200;48.810;12.352;2023-04-25T11:58:25;4.03;;;3.67;;
74674;SDS011;63200;48.810;12.352;2023-04-25T12:00:50;3.97;;;3.58;;
74674;SDS011;63200;48.810;12.352;2023-04-25T12:03:17;4.18;;;3.47;;
74674;SDS011;63200;48.810;12.352;2023-04-25T12:05:43;4.05;;;3.67;;
74674;SDS011;63200;48.810;12.352;2023-04-25T12:08:10;3.47;;;3.17;;
74674;SDS011;63200;48.810;12.352;2023-04-25T12:10:37;7.45;;;4.25;;
74674;SDS011;63200;48.810;12.352;2023-04-25T12:15:50;17.83;;;9.50;;
74674;SDS011;63200;48.810;12.352;2023-04-25T12:18:18;6.75;;;4.53;;
74674;SDS011;63200;48.810;12.352;2023-04-25T12:20:44;3.13;;;2.90;;
74674;SDS011;63200;48.810;12.352;2023-04-25T12:23:10;2.45;;;2.22;;
74674;SDS011;63200;48.810;12.352;2023-04-25T12:25:39;2.22;;;1.95;;
74674;SDS011;63200;48.810;12.352;2023-04-25T12:28:16;1.85;;;1.70;;
74674;SDS011;63200;48.810;12.352;2023-04-25T12:30:57;1.92;;;1.85;;
74674;SDS011;63200;48.810;12.352;2023-04-25T12:33:27;1.75;;;1.75;;
74674;SDS011;63200;48.810;12.352;2023-04-25T12:35:54;1.65;;;1.65;;
74674;SDS011;63200;48.810;12.352;2023-04-25T12:38:20;1.67;;;1.58;;
74674;SDS011;63200;48.810;12.352;2023-04-25T12:40:55;1.73;;;1.70;;
74674;SDS011;63200;48.810;12.352;2023-04-25T12:43:22;1.77;;;1.70;;
74674;SDS011;63200;48.810;12.352;2023-04-25T12:45:51;4.35;;;1.55;;
74674;SDS011;63200;48.810;12.352;2023-04-25T12:48:18;1.58;;;1.45;;
74674;SDS011;63200;48.810;12.352;2023-04-25T12:50:44;3.30;;;1.73;;
74674;SDS011;63200;48.810;12.352;2023-04-25T12:53:09;1.65;;;1.63;;
74674;SDS011;63200;48.810;12.352;2023-04-25T12:55:36;1.60;;;1.50;;
74674;SDS011;63200;48.810;12.352;2023-04-25T12:58:02;2.20;;;2.00;;
74674;SDS011;63200;48.810;12.352;2023-04-25T13:00:28;1.77;;;1.70;;
74674;SDS011;63200;48.810;12.352;2023-04-25T13:02:53;1.67;;;1.50;;
74674;SDS011;63200;48.810;12.352;2023-04-25T13:05:19;1.63;;;1.50;;
74674;SDS011;63200;48.810;12.352;2023-04-25T13:07:44;1.95;;;1.50;;
74674;SDS011;63200;48.810;12.352;2023-04-25T13:10:10;2.45;;;1.70;;
74674;SDS011;63200;48.810;12.352;2023-04-25T13:12:35;1.60;;;1.60;;
74674;SDS011;63200;48.810;12.352;2023-04-25T13:15:00;2.45;;;1.70;;
74674;SDS011;63200;48.810;12.352;2023-04-25T13:17:26;2.35;;;2.03;;
74674;SDS011;63200;48.810;12.352;2023-04-25T13:19:51;1.75;;;1.65;;
74674;SDS011;63200;48.810;12.352;2023-04-25T13:22:16;2.20;;;2.00;;
74674;SDS011;63200;48.810;12.352;2023-04-25T13:24:44;3.33;;;1.98;;
74674;SDS011;63200;48.810;12.352;2023-04-25T13:27:09;1.80;;;1.70;;
74674;SDS011;63200;48.810;12.352;2023-04-25T13:29:34;2.63;;;2.00;;
74674;SDS011;63200;48.810;12.352;2023-04-25T13:32:00;2.70;;;1.90;;
74674;SDS011;63200;48.810;12.352;2023-04-25T13:34:27;1.88;;;1.77;;
74674;SDS011;63200;48.810;12.352;2023-04-25T13:36:53;2.08;;;1.92;;
74674;SDS011;63200;48.810;12.352;2023-04-25T13:39:18;1.98;;;1.92;;
74674;SDS011;63200;48.810;12.352;2023-04-25T13:41:43;2.17;;;1.88;;
74674;SDS011;63200;48.810;12.352;2023-04-25T13:44:09;1.70;;;1.70;;
74674;SDS011;63200;48.810;12.352;2023-04-25T13:46:35;2.47;;;1.50;;
74674;SDS011;63200;48.810;12.352;2023-04-25T13:49:02;2.10;;;2.00;;
74674;SDS011;63200;48.810;12.352;2023-04-25T13:51:28;1.70;;;1.60;;
74674;SDS011;63200;48.810;12.352;2023-04-25T13:53:53;2.55;;;1.50;;
74674;SDS011;63200;48.810;12.352;2023-04-25T13:56:18;1.60;;;1.50;;
74674;SDS011;63200;48.810;12.352;2023-04-25T13:58:44;2.05;;;1.77;;
74674;SDS011;63200;48.810;12.352;2023-04-25T14:01:10;1.45;;;1.45;;
74674;SDS011;63200;48.810;12.352;2023-04-25T14:03:35;1.45;;;1.45;;
74674;SDS011;63200;48.810;12.352;2023-04-25T14:06:01;0.95;;;0.93;;
74674;SDS011;63200;48.810;12.352;2023-04-25T14:08:26;4.35;;;1.58;;
74674;SDS011;63200;48.810;12.352;2023-04-25T14:10:52;1.65;;;1.55;;
74674;SDS011;63200;48.810;12.352;2023-04-25T14:13:17;1.55;;;1.48;;
74674;SDS011;63200;48.810;12.352;2023-04-25T14:15:42;1.90;;;1.80;;
74674;SDS011;63200;48.810;12.352;2023-04-25T14:18:09;4.32;;;1.70;;
74674;SDS011;63200;48.810;12.352;2023-04-25T14:20:34;2.60;;;1.92;;
74674;SDS011;63200;48.810;12.352;2023-04-25T14:22:59;1.85;;;1.75;;
74674;SDS011;63200;48.810;12.352;2023-04-25T14:25:25;1.55;;;1.45;;
74674;SDS011;63200;48.810;12.352;2023-04-25T14:27:50;4.20;;;1.73;;
74674;SDS011;63200;48.810;12.352;2023-04-25T14:30:16;1.27;;;1.10;;
74674;SDS011;63200;48.810;12.352;2023-04-25T14:32:43;1.45;;;1.35;;
74674;SDS011;63200;48.810;12.352;2023-04-25T14:35:08;3.05;;;1.90;;
74674;SDS011;63200;48.810;12.352;2023-04-25T14:37:34;3.00;;;2.22;;
74674;SDS011;63200;48.810;12.352;2023-04-25T14:39:59;1.80;;;1.70;;
74674;SDS011;63200;48.810;12.352;2023-04-25T14:42:24;5.47;;;2.28;;
74674;SDS011;63200;48.810;12.352;2023-04-25T14:44:50;3.97;;;2.15;;